createdAt,value
2023-04-10T00:00:24.757Z,60.80
2023-04-10T00:02:52.784Z,60.90
2023-04-10T00:05:22.549Z,60.80
2023-04-10T00:07:50.513Z,61.10
2023-04-10T00:10:18.466Z,58.90
2023-04-10T00:12:46.365Z,61.30
2023-04-10T00:15:14.319Z,61.40
2023-04-10T00:17:42.176Z,61.50
2023-04-10T00:20:11.054Z,61.50
2023-04-10T00:22:41.896Z,63.00
2023-04-10T00:25:10.433Z,61.90
2023-04-10T00:27:38.251Z,62.00
2023-04-10T00:30:07.486Z,62.10
2023-04-10T00:32:35.449Z,62.30
2023-04-10T00:35:04.128Z,62.20
2023-04-10T00:37:32.426Z,62.40
2023-04-10T00:40:01.649Z,62.40
2023-04-10T00:42:29.568Z,62.60
2023-04-10T00:44:57.540Z,62.70
2023-04-10T00:47:26.227Z,63.00
2023-04-10T00:49:54.955Z,63.30
2023-04-10T00:52:22.961Z,63.30
2023-04-10T00:54:51.278Z,63.40
2023-04-10T00:57:20.779Z,63.40
2023-04-10T00:59:51.958Z,63.70
2023-04-10T01:02:20.336Z,63.70
2023-04-10T01:04:48.996Z,63.50
2023-04-10T01:07:28.896Z,63.70
2023-04-10T01:10:02.108Z,64.00
2023-04-10T01:12:50.871Z,64.70
2023-04-10T01:15:21.943Z,64.00
2023-04-10T01:17:57.180Z,63.80
2023-04-10T01:20:26.333Z,63.80
2023-04-10T01:23:20.635Z,63.90
2023-04-10T01:25:54.126Z,64.10
2023-04-10T01:28:44.724Z,63.70
2023-04-10T01:31:17.842Z,64.20
2023-04-10T01:33:51.850Z,63.90
2023-04-10T01:36:24.995Z,63.80
2023-04-10T01:38:54.418Z,64.20
2023-04-10T01:41:23.907Z,64.10
2023-04-10T01:43:55.174Z,64.30
2023-04-10T01:46:24.793Z,64.50
2023-04-10T01:48:55.589Z,64.50
2023-04-10T01:51:24.716Z,64.70
2023-04-10T01:53:53.537Z,64.70
2023-04-10T01:56:21.845Z,64.70
2023-04-10T01:58:50.546Z,64.60
2023-04-10T02:01:29.663Z,64.50
2023-04-10T02:03:58.934Z,64.80
2023-04-10T02:06:34.335Z,64.60
2023-04-10T02:09:12.514Z,65.00
2023-04-10T02:11:52.846Z,65.20
2023-04-10T02:14:23.100Z,65.10
2023-04-10T02:16:56.341Z,65.10
2023-04-10T02:19:26.042Z,65.30
2023-04-10T02:21:54.966Z,65.20
2023-04-10T02:24:23.436Z,65.20
2023-04-10T02:26:52.571Z,65.40
2023-04-10T02:29:20.580Z,65.40
2023-04-10T02:31:48.975Z,65.10
2023-04-10T02:34:18.274Z,65.30
2023-04-10T02:36:46.378Z,65.30
2023-04-10T02:39:14.788Z,65.40
2023-04-10T02:41:43.021Z,65.50
2023-04-10T02:44:11.072Z,65.50
2023-04-10T02:46:38.985Z,65.40
2023-04-10T02:49:06.828Z,65.50
2023-04-10T02:51:37.133Z,65.60
2023-04-10T02:54:05.329Z,65.70
2023-04-10T02:56:34.916Z,65.10
2023-04-10T02:59:03.481Z,65.60
2023-04-10T03:01:32.049Z,65.50
2023-04-10T03:04:00.001Z,65.70
2023-04-10T03:06:28.199Z,65.80
2023-04-10T03:08:57.379Z,65.90
2023-04-10T03:11:25.261Z,65.90
2023-04-10T03:13:53.226Z,65.80
2023-04-10T03:16:21.218Z,65.80
2023-04-10T03:18:49.602Z,65.70
2023-04-10T03:21:17.618Z,65.80
2023-04-10T03:23:46.452Z,65.80
2023-04-10T03:26:15.808Z,65.90
2023-04-10T03:28:43.674Z,65.90
2023-04-10T03:31:12.670Z,65.90
2023-04-10T03:33:41.017Z,66.00
2023-04-10T03:36:09.939Z,66.10
2023-04-10T03:38:37.838Z,66.20
2023-04-10T03:41:06.369Z,66.00
2023-04-10T03:43:35.546Z,66.00
2023-04-10T03:46:03.402Z,66.10
2023-04-10T03:48:32.287Z,66.30
2023-04-10T03:51:00.356Z,66.20
2023-04-10T03:53:28.288Z,66.40
2023-04-10T03:55:56.168Z,66.10
2023-04-10T03:58:24.156Z,66.20
2023-04-10T04:00:53.372Z,66.40
2023-04-10T04:03:21.567Z,66.40
2023-04-10T04:05:50.393Z,66.30
2023-04-10T04:08:18.224Z,66.00
2023-04-10T04:10:46.200Z,66.40
2023-04-10T04:13:14.450Z,66.40
2023-04-10T04:15:43.340Z,66.20
2023-04-10T04:18:12.593Z,66.40
2023-04-10T04:20:40.546Z,66.40
2023-04-10T04:23:08.584Z,66.40
2023-04-10T04:25:36.448Z,66.40
2023-04-10T04:28:04.373Z,66.30
2023-04-10T04:30:32.341Z,64.40
2023-04-10T04:33:00.214Z,66.40
2023-04-10T04:35:29.464Z,66.80
2023-04-10T04:37:57.330Z,66.90
2023-04-10T04:40:25.396Z,66.70
2023-04-10T04:42:53.244Z,66.80
2023-04-10T04:45:21.762Z,66.70
2023-04-10T04:47:50.143Z,66.60
2023-04-10T04:50:18.275Z,66.60
2023-04-10T04:52:47.802Z,66.80
2023-04-10T04:55:15.577Z,66.80
2023-04-10T04:57:43.425Z,66.80
2023-04-10T05:00:13.297Z,66.80
2023-04-10T05:02:41.287Z,67.00
2023-04-10T05:05:10.563Z,67.00
2023-04-10T05:07:38.352Z,66.80
2023-04-10T05:10:09.608Z,66.80
2023-04-10T05:12:37.683Z,66.90
2023-04-10T05:15:06.785Z,66.80
2023-04-10T05:17:34.742Z,67.00
2023-04-10T05:20:02.694Z,66.90
2023-04-10T05:22:30.945Z,66.70
2023-04-10T05:24:58.880Z,66.80
2023-04-10T05:27:28.145Z,66.80
2023-04-10T05:29:56.052Z,67.00
2023-04-10T05:32:24.012Z,67.00
2023-04-10T05:34:51.969Z,67.00
2023-04-10T05:37:19.776Z,67.00
2023-04-10T05:39:47.658Z,66.90
2023-04-10T05:42:16.012Z,67.50
2023-04-10T05:44:45.854Z,66.80
2023-04-10T05:47:13.844Z,67.10
2023-04-10T05:49:41.676Z,66.70
2023-04-10T05:52:09.738Z,67.70
2023-04-10T05:54:37.609Z,66.80
2023-04-10T05:57:05.608Z,66.90
2023-04-10T05:59:33.484Z,67.80
2023-04-10T06:02:03.473Z,66.90
2023-04-10T06:04:31.612Z,67.00
2023-04-10T06:06:59.754Z,67.50
2023-04-10T06:09:27.687Z,67.30
2023-04-10T06:11:56.590Z,67.60
2023-04-10T06:14:24.516Z,67.50
2023-04-10T06:16:52.409Z,67.00
2023-04-10T06:19:21.580Z,67.10
2023-04-10T06:21:49.800Z,66.90
2023-04-10T06:24:17.773Z,66.70
2023-04-10T06:26:45.837Z,66.50
2023-04-10T06:29:13.686Z,66.60
2023-04-10T06:31:41.595Z,66.40
2023-04-10T06:34:09.757Z,66.60
2023-04-10T06:36:38.981Z,66.40
2023-04-10T06:39:06.834Z,66.30
2023-04-10T06:41:34.677Z,66.10
2023-04-10T06:44:03.681Z,66.60
2023-04-10T06:46:31.899Z,65.30
2023-04-10T06:48:59.853Z,65.80
2023-04-10T06:51:27.843Z,66.30
2023-04-10T06:53:57.200Z,65.40
2023-04-10T06:56:24.980Z,65.10
2023-04-10T06:58:53.010Z,65.00
2023-04-10T07:01:21.023Z,65.30
2023-04-10T07:03:48.912Z,64.50
2023-04-10T07:06:16.785Z,65.50
2023-04-10T07:08:44.947Z,64.90
2023-04-10T07:11:14.529Z,65.20
2023-04-10T07:13:42.403Z,64.10
2023-04-10T07:16:12.574Z,64.70
2023-04-10T07:18:41.209Z,64.50
2023-04-10T07:21:13.646Z,64.60
2023-04-10T07:23:42.597Z,64.60
2023-04-10T07:26:10.660Z,64.70
2023-04-10T07:28:39.845Z,64.60
2023-04-10T07:31:08.953Z,65.00
2023-04-10T07:33:37.210Z,64.50
2023-04-10T07:36:05.990Z,64.40
2023-04-10T07:38:34.056Z,64.30
2023-04-10T07:41:01.829Z,64.40
2023-04-10T07:43:29.637Z,64.50
2023-04-10T07:45:59.262Z,64.10
2023-04-10T07:48:27.196Z,64.40
2023-04-10T07:50:55.124Z,64.80
2023-04-10T07:53:23.250Z,64.70
2023-04-10T07:55:51.275Z,64.70
2023-04-10T07:58:19.271Z,64.70
2023-04-10T08:00:47.398Z,64.60
2023-04-10T08:03:17.426Z,64.30
2023-04-10T08:05:45.370Z,64.00
2023-04-10T08:08:13.448Z,63.40
2023-04-10T08:10:41.249Z,63.10
2023-04-10T08:13:09.682Z,62.50
2023-04-10T08:15:37.517Z,62.60
2023-04-10T08:18:05.435Z,62.30
2023-04-10T08:20:37.047Z,61.90
2023-04-10T08:23:17.128Z,62.10
2023-04-10T08:25:47.918Z,61.80
2023-04-10T08:28:15.792Z,61.70
2023-04-10T08:30:43.642Z,61.60
2023-04-10T08:33:11.839Z,61.90
2023-04-10T08:35:41.103Z,61.80
2023-04-10T08:38:14.039Z,62.20
2023-04-10T08:40:44.320Z,62.00
2023-04-10T08:43:12.540Z,62.10
2023-04-10T08:45:42.661Z,61.70
2023-04-10T08:48:12.342Z,61.60
2023-04-10T08:50:44.484Z,61.50
2023-04-10T08:53:14.562Z,61.30
2023-04-10T08:55:43.711Z,61.30
2023-04-10T08:58:13.744Z,61.10
2023-04-10T09:00:41.657Z,61.10
2023-04-10T09:03:11.785Z,61.70
2023-04-10T09:05:41.854Z,61.30
2023-04-10T09:08:10.927Z,61.20
2023-04-10T09:10:39.222Z,60.70
2023-04-10T09:13:07.251Z,60.60
2023-04-10T09:15:56.699Z,60.90
2023-04-10T09:18:41.362Z,60.80
2023-04-10T09:21:12.913Z,61.00
2023-04-10T09:23:42.565Z,61.00
2023-04-10T09:26:27.419Z,61.00
2023-04-10T09:29:03.104Z,61.10
2023-04-10T09:31:33.542Z,61.00
2023-04-10T09:34:13.724Z,61.10
2023-04-10T09:36:43.969Z,61.20
2023-04-10T09:39:13.574Z,60.90
2023-04-10T09:41:55.574Z,61.10
2023-04-10T09:44:31.617Z,60.70
2023-04-10T09:47:00.456Z,61.00
2023-04-10T09:49:28.315Z,61.10
2023-04-10T09:51:57.604Z,60.90
2023-04-10T09:54:37.450Z,60.60
2023-04-10T09:57:08.010Z,61.10
2023-04-10T09:59:41.188Z,60.60
2023-04-10T10:02:11.650Z,60.30
2023-04-10T10:04:43.828Z,60.50
2023-04-10T10:07:13.847Z,60.40
2023-04-10T10:09:42.933Z,61.10
2023-04-10T10:12:12.669Z,60.30
2023-04-10T10:14:50.567Z,60.10
2023-04-10T10:17:21.220Z,60.20
2023-04-10T10:20:01.910Z,60.00
2023-04-10T10:22:31.511Z,59.80
2023-04-10T10:25:01.623Z,59.80
2023-04-10T10:27:31.838Z,59.80
2023-04-10T10:30:05.474Z,60.00
2023-04-10T10:32:42.777Z,60.00
2023-04-10T10:35:12.065Z,60.00
2023-04-10T10:37:42.958Z,59.80
2023-04-10T10:40:18.485Z,59.80
2023-04-10T10:42:51.715Z,60.10
2023-04-10T10:45:25.033Z,60.70
2023-04-10T10:47:55.558Z,60.90
2023-04-10T10:50:24.287Z,60.80
2023-04-10T10:52:57.264Z,59.70
2023-04-10T10:55:32.632Z,59.20
2023-04-10T10:58:02.051Z,59.00
2023-04-10T11:01:03.733Z,59.00
2023-04-10T11:03:31.684Z,58.80
2023-04-10T11:06:02.307Z,59.10
2023-04-10T11:08:44.233Z,59.10
2023-04-10T11:11:16.020Z,58.60
2023-04-10T11:14:20.277Z,59.00
2023-04-10T11:16:49.662Z,58.80
2023-04-10T11:19:22.622Z,59.30
2023-04-10T11:22:08.930Z,58.70
2023-04-10T11:24:58.802Z,58.80
2023-04-10T11:27:49.806Z,58.20
2023-04-10T11:30:33.837Z,57.40
2023-04-10T11:33:03.667Z,57.30
2023-04-10T11:35:32.974Z,57.50
2023-04-10T11:38:18.367Z,57.30
2023-04-10T11:40:58.637Z,57.00
2023-04-10T11:43:26.571Z,57.30
2023-04-10T11:46:04.729Z,57.70
2023-04-10T11:48:33.193Z,57.60
2023-04-10T11:51:07.432Z,57.40
2023-04-10T11:53:35.462Z,57.20
2023-04-10T11:56:04.658Z,56.90
2023-04-10T11:58:32.852Z,57.30
2023-04-10T12:01:02.446Z,57.50
2023-04-10T12:03:35.621Z,57.20
2023-04-10T12:06:04.207Z,57.00
2023-04-10T12:08:32.832Z,56.80
2023-04-10T12:11:01.328Z,56.90
2023-04-10T12:13:31.813Z,57.30
2023-04-10T12:16:01.147Z,57.00
2023-04-10T12:18:30.068Z,56.80
2023-04-10T12:20:59.296Z,56.40
2023-04-10T12:23:29.209Z,55.90
2023-04-10T12:26:12.954Z,55.50
2023-04-10T12:28:43.780Z,55.30
2023-04-10T12:31:12.001Z,55.40
2023-04-10T12:33:40.731Z,55.10
2023-04-10T12:36:21.847Z,55.40
2023-04-10T12:38:51.173Z,55.30
2023-04-10T12:41:24.394Z,55.30
2023-04-10T12:43:55.064Z,55.30
2023-04-10T12:46:27.800Z,55.40
2023-04-10T12:48:56.654Z,55.40
2023-04-10T12:51:44.096Z,55.00
2023-04-10T12:54:12.947Z,54.70
2023-04-10T12:56:43.036Z,54.90
2023-04-10T12:59:12.803Z,54.50
2023-04-10T13:01:41.062Z,54.20
2023-04-10T13:04:09.642Z,54.60
2023-04-10T13:06:44.263Z,54.60
2023-04-10T13:09:13.598Z,53.90
2023-04-10T13:11:41.840Z,54.10
2023-04-10T13:14:11.102Z,54.20
2023-04-10T13:16:40.345Z,54.00
2023-04-10T13:19:08.449Z,53.80
2023-04-10T13:21:36.326Z,54.00
2023-04-10T13:24:04.196Z,54.30
2023-04-10T13:26:32.004Z,54.30
2023-04-10T13:28:59.881Z,54.80
2023-04-10T13:31:27.773Z,54.30
2023-04-10T13:33:57.355Z,54.60
2023-04-10T13:36:26.172Z,54.80
2023-04-10T13:38:54.450Z,55.40
2023-04-10T13:41:23.670Z,56.00
2023-04-10T13:43:51.794Z,55.90
2023-04-10T13:46:19.831Z,56.50
2023-04-10T13:48:47.649Z,56.00
2023-04-10T13:51:16.904Z,56.80
2023-04-10T13:53:45.019Z,57.40
2023-04-10T13:56:13.104Z,58.20
2023-04-10T13:58:40.982Z,58.40
2023-04-10T14:01:09.663Z,58.50
2023-04-10T14:03:37.778Z,58.70
2023-04-10T14:06:06.013Z,58.90
2023-04-10T14:08:35.149Z,59.10
2023-04-10T14:11:03.118Z,59.10
2023-04-10T14:13:30.984Z,59.50
2023-04-10T14:15:59.014Z,59.60
2023-04-10T14:18:26.814Z,59.70
2023-04-10T14:20:54.557Z,60.30
2023-04-10T14:23:22.664Z,60.30
2023-04-10T14:25:52.190Z,60.90
2023-04-10T14:28:20.027Z,61.30
2023-04-10T14:30:49.815Z,61.80
2023-04-10T14:33:19.756Z,61.80
2023-04-10T14:35:48.766Z,62.90
2023-04-10T14:38:16.866Z,63.10
2023-04-10T14:40:46.590Z,63.30
2023-04-10T14:43:15.820Z,64.00
2023-04-10T14:45:43.866Z,64.30
2023-04-10T14:48:13.737Z,65.00
2023-04-10T14:50:41.643Z,65.60
2023-04-10T14:53:10.969Z,66.10
2023-04-10T14:55:38.812Z,66.30
2023-04-10T14:58:08.900Z,66.60
2023-04-10T15:00:38.156Z,67.00
2023-04-10T15:03:06.643Z,67.80
2023-04-10T15:05:34.796Z,68.20
2023-04-10T15:08:02.744Z,68.40
2023-04-10T15:10:31.140Z,69.00
2023-04-10T15:12:59.129Z,69.40
2023-04-10T15:15:27.012Z,69.50
2023-04-10T15:17:56.426Z,69.40
2023-04-10T15:20:24.326Z,70.10
2023-04-10T15:22:52.197Z,70.40
2023-04-10T15:25:20.003Z,70.10
2023-04-10T15:27:47.912Z,70.50
2023-04-10T15:30:17.314Z,71.40
2023-04-10T15:32:45.468Z,71.00
2023-04-10T15:35:15.226Z,72.80
2023-04-10T15:37:43.571Z,71.40
2023-04-10T15:40:11.854Z,71.80
2023-04-10T15:42:39.827Z,75.00
2023-04-10T15:45:08.567Z,74.50
2023-04-10T15:47:36.735Z,74.40
2023-04-10T15:50:05.072Z,74.40
2023-04-10T15:52:34.277Z,74.70
2023-04-10T15:55:02.347Z,74.90
2023-04-10T15:57:30.222Z,74.50
2023-04-10T16:00:00.409Z,74.50
2023-04-10T16:02:28.504Z,74.70
2023-04-10T16:04:56.726Z,74.80
2023-04-10T16:07:24.675Z,75.30
2023-04-10T16:09:55.136Z,75.90
2023-04-10T16:12:22.954Z,76.30
2023-04-10T16:14:51.140Z,76.50
2023-04-10T16:17:19.050Z,76.60
2023-04-10T16:19:46.921Z,76.60
2023-04-10T16:22:14.947Z,77.00
2023-04-10T16:24:42.853Z,77.50
2023-04-10T16:27:12.512Z,77.10
2023-04-10T16:29:40.531Z,78.00
2023-04-10T16:32:08.531Z,78.00
2023-04-10T16:34:36.366Z,78.40
2023-04-10T16:37:04.251Z,78.80
2023-04-10T16:39:32.072Z,79.20
2023-04-10T16:42:00.657Z,79.70
2023-04-10T16:44:29.881Z,79.60
2023-04-10T16:46:58.023Z,80.50
2023-04-10T16:49:26.615Z,80.40
2023-04-10T16:51:54.506Z,80.60
2023-04-10T16:54:22.420Z,81.00
2023-04-10T16:56:50.606Z,81.40
2023-04-10T16:59:18.510Z,81.60
2023-04-10T17:01:48.688Z,81.80
2023-04-10T17:04:18.074Z,82.40
2023-04-10T17:06:46.067Z,82.30
2023-04-10T17:09:14.139Z,82.10
2023-04-10T17:11:42.095Z,82.50
2023-04-10T17:14:13.229Z,83.00
2023-04-10T17:16:41.271Z,83.00
2023-04-10T17:19:10.794Z,83.50
2023-04-10T17:21:39.160Z,83.40
2023-04-10T17:24:07.146Z,83.40
2023-04-10T17:26:35.066Z,83.80
2023-04-10T17:29:02.984Z,83.70
2023-04-10T17:31:31.289Z,83.70
2023-04-10T17:33:59.337Z,84.00
2023-04-10T17:36:30.882Z,84.20
2023-04-10T17:38:59.445Z,84.20
2023-04-10T17:41:27.727Z,84.20
2023-04-10T17:43:55.681Z,84.40
2023-04-10T17:46:23.451Z,84.50
2023-04-10T17:48:51.464Z,84.60
2023-04-10T17:51:19.367Z,84.30
2023-04-10T17:53:48.912Z,84.80
2023-04-10T17:56:20.821Z,85.70
2023-04-10T17:58:49.020Z,85.50
2023-04-10T18:01:22.752Z,84.90
2023-04-10T18:03:50.990Z,85.70
2023-04-10T18:06:19.002Z,85.20
2023-04-10T18:08:48.750Z,85.70
2023-04-10T18:11:16.667Z,85.80
2023-04-10T18:13:45.606Z,85.70
2023-04-10T18:16:13.887Z,85.70
2023-04-10T18:18:42.808Z,85.90
2023-04-10T18:21:12.107Z,85.90
2023-04-10T18:23:40.109Z,85.80
2023-04-10T18:26:09.726Z,86.00
2023-04-10T18:28:38.703Z,86.40
2023-04-10T18:31:08.466Z,86.10
2023-04-10T18:33:36.419Z,86.10
2023-04-10T18:36:04.472Z,85.90
2023-04-10T18:38:34.405Z,86.30
2023-04-10T18:41:02.218Z,86.10
2023-04-10T18:43:31.450Z,86.00
2023-04-10T18:45:59.349Z,86.40
2023-04-10T18:48:27.197Z,86.00
2023-04-10T18:50:55.342Z,86.00
2023-04-10T18:53:23.294Z,86.10
2023-04-10T18:55:52.450Z,86.00
2023-04-10T18:58:21.338Z,86.00
2023-04-10T19:00:51.070Z,85.90
2023-04-10T19:03:19.429Z,85.50
2023-04-10T19:05:48.689Z,86.50
2023-04-10T19:08:17.142Z,86.30
2023-04-10T19:10:45.132Z,86.70
2023-04-10T19:13:13.894Z,86.50
2023-04-10T19:15:43.043Z,86.80
2023-04-10T19:18:14.039Z,87.00
2023-04-10T19:20:50.737Z,86.90
2023-04-10T19:23:20.545Z,86.50
2023-04-10T19:25:52.016Z,86.60
2023-04-10T19:28:20.073Z,86.70
2023-04-10T19:30:48.020Z,86.50
2023-04-10T19:33:17.393Z,86.50
2023-04-10T19:35:45.821Z,86.70
2023-04-10T19:38:14.091Z,86.50
2023-04-10T19:40:41.973Z,86.50
2023-04-10T19:43:09.922Z,86.50
2023-04-10T19:45:39.712Z,86.80
2023-04-10T19:48:08.162Z,86.60
2023-04-10T19:50:37.333Z,86.80
2023-04-10T19:53:05.473Z,86.90
2023-04-10T19:55:33.312Z,86.90
2023-04-10T19:58:01.201Z,86.90
2023-04-10T20:00:29.069Z,87.10
2023-04-10T20:02:57.131Z,87.00
2023-04-10T20:05:25.267Z,87.00
2023-04-10T20:07:54.428Z,87.20
2023-04-10T20:10:22.685Z,87.20
2023-04-10T20:12:50.781Z,87.30
2023-04-10T20:15:20.400Z,86.80
2023-04-10T20:17:48.853Z,87.40
2023-04-10T20:20:16.644Z,87.30
2023-04-10T20:22:45.386Z,87.60
2023-04-10T20:25:15.366Z,87.50
2023-04-10T20:27:43.229Z,87.70
2023-04-10T20:30:11.942Z,87.70
2023-04-10T20:32:40.069Z,87.90
2023-04-10T20:35:09.530Z,87.80
2023-04-10T20:37:37.518Z,87.90
2023-04-10T20:40:06.269Z,87.70
2023-04-10T20:42:35.534Z,88.20
2023-04-10T20:45:04.040Z,88.30
2023-04-10T20:47:31.895Z,87.90
2023-04-10T20:49:59.676Z,88.10
2023-04-10T20:52:27.482Z,87.80
2023-04-10T20:54:55.522Z,87.60
2023-04-10T20:57:23.814Z,87.40
2023-04-10T20:59:53.160Z,87.50
2023-04-10T21:02:21.208Z,87.30
2023-04-10T21:04:50.788Z,87.40
2023-04-10T21:07:18.649Z,87.40
2023-04-10T21:09:46.538Z,87.30
2023-04-10T21:12:14.528Z,87.40
2023-04-10T21:14:42.364Z,87.50
2023-04-10T21:17:11.685Z,87.50
2023-04-10T21:19:39.719Z,87.80
2023-04-10T21:22:10.449Z,87.80
2023-04-10T21:24:38.297Z,87.80
2023-04-10T21:27:06.333Z,87.90
2023-04-10T21:29:35.987Z,88.00
2023-04-10T21:32:03.917Z,88.90
2023-04-10T21:34:33.120Z,88.30
2023-04-10T21:37:00.972Z,88.30
2023-04-10T21:39:30.449Z,88.20
2023-04-10T21:41:58.476Z,88.30
2023-04-10T21:44:26.317Z,88.00
2023-04-10T21:46:54.166Z,88.30
2023-04-10T21:49:21.974Z,88.20
2023-04-10T21:51:51.562Z,88.30
2023-04-10T21:54:19.383Z,88.30
2023-04-10T21:56:47.644Z,88.10
2023-04-10T21:59:15.425Z,88.20
2023-04-10T22:01:43.855Z,88.10
2023-04-10T22:04:12.578Z,88.00
2023-04-10T22:06:40.545Z,88.00
2023-04-10T22:09:10.529Z,88.00
2023-04-10T22:11:39.078Z,88.00
2023-04-10T22:14:15.768Z,88.00
2023-04-10T22:16:45.237Z,87.70
2023-04-10T22:19:13.289Z,87.70
2023-04-10T22:21:41.155Z,87.90
2023-04-10T22:24:10.898Z,87.60
2023-04-10T22:26:38.689Z,87.90
2023-04-10T22:29:06.496Z,87.70
2023-04-10T22:31:34.358Z,85.40
2023-04-10T22:34:02.200Z,83.20
2023-04-10T22:36:33.789Z,82.50
2023-04-10T22:39:01.660Z,82.10
2023-04-10T22:41:31.101Z,81.90
2023-04-10T22:43:59.067Z,81.80
2023-04-10T22:46:27.084Z,81.90
2023-04-10T22:48:55.776Z,82.10
2023-04-10T22:51:23.823Z,82.10
2023-04-10T22:53:51.785Z,82.10
2023-04-10T22:56:23.113Z,82.70
2023-04-10T22:58:52.798Z,82.60
2023-04-10T23:01:20.927Z,82.70
2023-04-10T23:03:52.826Z,82.90
2023-04-10T23:06:21.095Z,82.90
2023-04-10T23:08:48.989Z,82.70
2023-04-10T23:11:16.952Z,82.60
2023-04-10T23:13:45.248Z,82.60
2023-04-10T23:16:14.567Z,82.70
2023-04-10T23:18:42.597Z,82.70
2023-04-10T23:21:10.740Z,82.80
2023-04-10T23:23:38.565Z,82.60
2023-04-10T23:26:06.781Z,82.60
2023-04-10T23:28:34.600Z,82.70
2023-04-10T23:31:02.449Z,82.70
2023-04-10T23:33:31.896Z,82.70
2023-04-10T23:36:00.090Z,82.90
2023-04-10T23:38:28.081Z,83.10
2023-04-10T23:40:55.973Z,82.90
2023-04-10T23:43:23.881Z,83.20
2023-04-10T23:45:51.808Z,83.30
2023-04-10T23:48:19.764Z,83.50
2023-04-10T23:50:49.434Z,83.90
2023-04-10T23:53:17.321Z,84.20
2023-04-10T23:55:45.148Z,84.40
2023-04-10T23:58:13.351Z,84.70
